Time;durP1;ratioP1;P1;durP2;ratioP2;P2;SDS_P1;SDS_P2;PMS_P1;PMS_P2;Temp;Humidity;BMP_temperature;BMP_pressure;BME280_temperature;BME280_humidity;BME280_pressure;Samples;Min_cycle;Max_cycle;Signal;HPM_P1;HPM_P2
2022/03/19 00:01:02;;;;;;;10.80;3.33;;;3.40;99.90;;;;;;5038199;28;20036;-86
2022/03/19 00:03:29;;;;;;;15.57;3.47;;;3.30;99.90;;;;;;5027203;28;20045;-86
2022/03/19 00:05:55;;;;;;;18.40;4.28;;;3.30;99.90;;;;;;5025489;28;20102;-86
2022/03/19 00:08:31;;;;;;;14.45;4.40;;;3.40;99.90;;;;;;5039751;28;20041;-87
2022/03/19 00:11:00;;;;;;;15.43;4.15;;;3.40;99.90;;;;;;5016076;28;20041;-87
2022/03/19 00:13:30;;;;;;;17.00;3.90;;;3.40;99.90;;;;;;5035982;28;20033;-86
2022/03/19 00:15:56;;;;;;;16.90;4.03;;;3.40;99.90;;;;;;5023856;28;20072;-87
2022/03/19 00:18:22;;;;;;;13.07;4.13;;;3.40;99.90;;;;;;5012526;28;20064;-86
2022/03/19 00:20:48;;;;;;;17.35;5.32;;;3.40;99.90;;;;;;5027632;28;20041;-87
2022/03/19 00:23:15;;;;;;;14.07;4.10;;;3.40;99.90;;;;;;5031285;28;20040;-87
2022/03/19 00:25:41;;;;;;;13.38;3.80;;;3.40;99.90;;;;;;5022612;28;20484;-86
2022/03/19 00:28:09;;;;;;;13.93;3.78;;;3.30;99.90;;;;;;5031391;28;20392;-86
2022/03/19 00:30:35;;;;;;;12.25;3.47;;;3.30;99.90;;;;;;5019748;28;20059;-86
2022/03/19 00:33:01;;;;;;;13.93;3.83;;;3.30;99.90;;;;;;5010767;28;20120;-86
2022/03/19 00:35:26;;;;;;;14.48;3.30;;;3.30;99.90;;;;;;5013511;28;20615;-85
2022/03/19 00:37:55;;;;;;;12.10;3.17;;;3.30;99.90;;;;;;5020675;28;20025;-86
2022/03/19 00:40:22;;;;;;;19.92;6.55;;;3.20;99.90;;;;;;5021489;28;20045;-87
2022/03/19 00:43:00;;;;;;;12.68;3.72;;;3.40;99.90;;;;;;5036112;28;20178;-86
2022/03/19 00:45:28;;;;;;;18.42;3.88;;;3.30;99.90;;;;;;5016108;28;20032;-86
2022/03/19 00:47:55;;;;;;;14.82;3.83;;;3.20;99.90;;;;;;5019442;28;20041;-87
2022/03/19 00:50:26;;;;;;;13.88;3.53;;;3.20;99.90;;;;;;5020870;28;20040;-85
2022/03/19 00:52:52;;;;;;;17.00;3.67;;;3.30;99.90;;;;;;5033739;28;20121;-86
2022/03/19 00:55:18;;;;;;;17.40;4.32;;;3.30;99.90;;;;;;5021258;28;20595;-87
2022/03/19 00:57:48;;;;;;;18.15;3.45;;;3.30;99.90;;;;;;5021662;28;20223;-86
2022/03/19 01:00:15;;;;;;;14.55;3.60;;;3.20;99.90;;;;;;5016560;28;20081;-85
2022/03/19 01:02:43;;;;;;;17.75;4.00;;;3.20;99.90;;;;;;5031893;28;20033;-86
2022/03/19 01:05:18;;;;;;;13.23;3.70;;;3.20;99.90;;;;;;5019640;28;20033;-85
2022/03/19 01:07:53;;;;;;;;;;;3.20;99.90;;;;;;5019702;28;20029;-87
2022/03/19 01:10:26;;;;;;;12.43;3.70;;;3.20;99.90;;;;;;5019935;28;19978;-86
2022/03/19 01:12:54;;;;;;;13.45;3.72;;;3.20;99.90;;;;;;5034259;28;20045;-86
2022/03/19 01:15:24;;;;;;;13.48;3.17;;;3.10;99.90;;;;;;5015138;28;20116;-86
2022/03/19 01:17:50;;;;;;;14.38;4.10;;;3.10;99.90;;;;;;5018860;28;20536;-86
2022/03/19 01:20:17;;;;;;;11.63;3.38;;;3.10;99.90;;;;;;5033817;28;20028;-86
2022/03/19 01:22:44;;;;;;;11.65;3.35;;;3.00;99.90;;;;;;5035292;28;20069;-86
2022/03/19 01:25:12;;;;;;;10.50;2.90;;;3.00;99.90;;;;;;5020657;28;20036;-86
2022/03/19 01:27:39;;;;;;;14.23;3.90;;;3.00;99.90;;;;;;5017288;28;20040;-86
2022/03/19 01:30:06;;;;;;;15.88;3.58;;;3.00;99.90;;;;;;5019829;28;20099;-86
2022/03/19 01:32:32;;;;;;;17.60;4.43;;;3.00;99.90;;;;;;5024067;28;20033;-86
2022/03/19 01:35:01;;;;;;;15.35;3.28;;;3.00;99.90;;;;;;5033531;28;20485;-86
2022/03/19 01:37:27;;;;;;;12.45;3.65;;;3.00;99.90;;;;;;5028940;28;20562;-86
2022/03/19 01:39:56;;;;;;;19.38;3.63;;;2.90;99.90;;;;;;5017508;28;20053;-86
2022/03/19 01:42:29;;;;;;;19.10;4.20;;;2.80;99.90;;;;;;5033598;28;20044;-87
2022/03/19 01:44:59;;;;;;;14.60;4.05;;;2.90;99.90;;;;;;5019942;28;20278;-86
2022/03/19 01:47:29;;;;;;;14.32;3.83;;;2.90;99.90;;;;;;5028677;28;20401;-86
2022/03/19 01:49:56;;;;;;;12.40;3.92;;;2.90;99.90;;;;;;5019887;28;20041;-86
2022/03/19 01:52:22;;;;;;;11.40;4.22;;;2.90;99.90;;;;;;5020233;28;20088;-87
2022/03/19 01:54:55;;;;;;;13.82;3.83;;;2.90;99.90;;;;;;5017123;28;20492;-87
2022/03/19 01:57:33;;;;;;;12.90;4.53;;;3.00;99.90;;;;;;5003030;28;20234;-87
2022/03/19 02:00:00;;;;;;;16.35;3.92;;;2.90;99.90;;;;;;5018536;28;20124;-87
2022/03/19 02:02:30;;;;;;;18.23;3.60;;;3.00;99.90;;;;;;5013339;28;20037;-86
2022/03/19 02:05:03;;;;;;;15.50;4.03;;;3.00;99.90;;;;;;5016749;28;20119;-86
2022/03/19 02:07:30;;;;;;;12.18;3.53;;;3.00;99.90;;;;;;5019533;28;20029;-87
2022/03/19 02:10:07;;;;;;;14.05;3.90;;;3.10;99.90;;;;;;5020081;28;20150;-87
2022/03/19 02:12:37;;;;;;;17.75;4.20;;;3.00;99.90;;;;;;5034009;28;20590;-86
2022/03/19 02:15:04;;;;;;;12.48;3.38;;;3.00;99.90;;;;;;5051551;28;20472;-86
2022/03/19 02:17:30;;;;;;;13.10;4.30;;;3.10;99.90;;;;;;5028439;28;20215;-86
2022/03/19 02:20:03;;;;;;;12.38;4.13;;;3.10;99.90;;;;;;5017938;28;20125;-86
2022/03/19 02:22:32;;;;;;;16.83;4.85;;;3.10;99.90;;;;;;5017153;28;20045;-86
2022/03/19 02:27:51;;;;;;;17.75;4.65;;;3.10;99.90;;;;;;5032152;28;20110;-87
2022/03/19 02:30:20;;;;;;;17.65;4.05;;;3.20;99.90;;;;;;5018471;28;20455;-87
2022/03/19 02:32:49;;;;;;;18.23;3.97;;;3.20;99.90;;;;;;5018429;28;20032;-86
2022/03/19 02:35:17;;;;;;;15.35;4.10;;;3.20;99.90;;;;;;5034465;28;20049;-86
2022/03/19 02:37:48;;;;;;;16.05;4.40;;;3.20;99.90;;;;;;5015813;28;20041;-86
2022/03/19 02:40:17;;;;;;;14.75;4.78;;;3.20;99.90;;;;;;5036983;28;20332;-86
2022/03/19 02:42:46;;;;;;;14.70;4.35;;;3.40;99.90;;;;;;5040752;28;20079;-86
2022/03/19 02:45:38;;;;;;;16.73;4.60;;;3.20;99.90;;;;;;5013979;28;20537;-86
2022/03/19 02:48:04;;;;;;;14.57;5.00;;;3.20;99.90;;;;;;5025680;28;20445;-87
2022/03/19 02:50:39;;;;;;;15.70;4.07;;;3.20;99.90;;;;;;5017300;28;20040;-87
2022/03/19 02:53:10;;;;;;;19.25;5.82;;;3.30;99.90;;;;;;5019076;28;20666;-86
2022/03/19 02:55:41;;;;;;;16.45;5.00;;;3.20;99.90;;;;;;5018458;28;20349;-86
2022/03/19 02:58:08;;;;;;;14.73;4.93;;;3.30;99.90;;;;;;5018271;28;20044;-86
2022/03/19 03:00:35;;;;;;;15.45;5.72;;;3.20;99.90;;;;;;5034388;28;20246;-86
2022/03/19 03:03:10;;;;;;;22.05;5.10;;;3.10;99.90;;;;;;5020734;28;20037;-87
2022/03/19 03:05:37;;;;;;;;;;;3.30;99.90;;;;;;5035196;28;20037;-86
2022/03/19 03:08:05;;;;;;;19.15;5.38;;;3.20;99.90;;;;;;5041720;28;20390;-87
2022/03/19 03:10:32;;;;;;;16.40;4.88;;;3.10;99.90;;;;;;5015913;28;20285;-87
2022/03/19 03:12:59;;;;;;;18.85;5.07;;;3.10;99.90;;;;;;5019983;28;20322;-86
2022/03/19 03:15:28;;;;;;;17.88;5.00;;;3.10;99.90;;;;;;5014719;28;20115;-87
2022/03/19 03:17:58;;;;;;;20.48;4.63;;;3.10;99.90;;;;;;5033654;28;20057;-86
2022/03/19 03:20:26;;;;;;;15.95;4.63;;;3.10;99.90;;;;;;5019183;28;20107;-86
2022/03/19 03:22:52;;;;;;;14.80;4.93;;;3.00;99.90;;;;;;5019574;28;20037;-86
2022/03/19 03:25:18;;;;;;;14.20;4.85;;;3.00;99.90;;;;;;5035392;28;20060;-86
2022/03/19 03:27:47;;;;;;;14.25;5.60;;;2.90;99.90;;;;;;5014093;28;20453;-87
2022/03/19 03:30:25;;;;;;;15.18;5.07;;;2.90;99.90;;;;;;5012467;28;20195;-86
2022/03/19 03:32:51;;;;;;;;;;;2.80;99.90;;;;;;5017787;28;20045;-87
2022/03/19 03:35:17;;;;;;;15.77;4.53;;;2.80;99.90;;;;;;5035702;28;19972;-87
2022/03/19 03:37:42;;;;;;;16.98;4.43;;;2.70;99.90;;;;;;5035634;28;20099;-87
2022/03/19 03:40:08;;;;;;;16.00;5.88;;;2.70;99.90;;;;;;5019817;28;20045;-86
2022/03/19 03:42:34;;;;;;;19.02;5.45;;;2.70;99.90;;;;;;5018597;28;20048;-86
2022/03/19 03:45:03;;;;;;;16.95;4.93;;;2.70;99.90;;;;;;5021265;28;20459;-87
2022/03/19 03:47:29;;;;;;;14.85;5.70;;;2.60;99.90;;;;;;5021728;28;20136;-86
2022/03/19 03:49:55;;;;;;;16.08;6.25;;;2.50;99.90;;;;;;5023139;28;20033;-86
2022/03/19 03:52:40;;;;;;;15.82;5.30;;;2.60;99.90;;;;;;5021375;28;20075;-86
2022/03/19 03:55:07;;;;;;;18.83;5.20;;;2.40;99.90;;;;;;5019649;28;20047;-86
2022/03/19 03:57:34;;;;;;;19.17;5.55;;;2.50;99.90;;;;;;5022418;28;20044;-87
2022/03/19 04:00:05;;;;;;;13.93;5.47;;;2.50;99.90;;;;;;5034002;28;20394;-86
2022/03/19 04:02:33;;;;;;;20.67;6.22;;;2.30;99.90;;;;;;5015709;28;20147;-86
2022/03/19 04:05:03;;;;;;;15.48;5.40;;;2.30;99.90;;;;;;5023458;28;21006;-86
2022/03/19 04:07:30;;;;;;;15.32;6.47;;;2.30;99.90;;;;;;5022237;28;20040;-86
2022/03/19 04:09:59;;;;;;;15.32;5.68;;;2.40;99.90;;;;;;5023987;28;20523;-86
2022/03/19 04:12:25;;;;;;;19.20;6.40;;;2.30;99.90;;;;;;5015528;28;20041;-86
2022/03/19 04:14:53;;;;;;;17.77;6.28;;;2.30;99.90;;;;;;5037054;28;20045;-86
2022/03/19 04:17:19;;;;;;;17.15;6.38;;;2.40;99.90;;;;;;5021241;28;20029;-86
2022/03/19 04:19:46;;;;;;;18.48;6.47;;;2.40;99.90;;;;;;5038982;28;20045;-86
2022/03/19 04:22:14;;;;;;;19.15;6.80;;;2.30;99.90;;;;;;5044222;28;20036;-87
2022/03/19 04:24:43;;;;;;;15.05;6.75;;;2.40;99.90;;;;;;5004809;28;20052;-86
2022/03/19 04:27:10;;;;;;;19.67;6.30;;;2.30;99.90;;;;;;5022047;28;20376;-86
2022/03/19 04:29:36;;;;;;;16.75;6.22;;;2.30;99.90;;;;;;5021871;28;20376;-86
2022/03/19 04:32:02;;;;;;;18.30;6.65;;;2.30;99.90;;;;;;5021771;28;20306;-86
2022/03/19 04:34:28;;;;;;;27.35;7.22;;;2.30;99.90;;;;;;5020846;28;20044;-86
2022/03/19 04:36:53;;;;;;;23.60;7.28;;;2.40;99.90;;;;;;5037814;28;20098;-86
2022/03/19 04:39:19;;;;;;;22.10;7.43;;;2.30;99.90;;;;;;5016163;28;20046;-85
2022/03/19 04:41:45;;;;;;;13.82;6.38;;;2.30;99.90;;;;;;5022541;28;20063;-86
2022/03/19 04:44:10;;;;;;;21.38;6.30;;;2.30;99.90;;;;;;5019811;28;20113;-87
2022/03/19 04:46:39;;;;;;;20.52;7.15;;;2.30;99.90;;;;;;5021973;28;20120;-86
2022/03/19 04:49:05;;;;;;;17.88;7.43;;;2.20;99.90;;;;;;5035456;28;20033;-86
2022/03/19 04:51:33;;;;;;;19.23;6.53;;;2.20;99.90;;;;;;5035199;28;20229;-86
2022/03/19 04:54:01;;;;;;;21.25;6.95;;;2.30;99.90;;;;;;5002017;28;20485;-87
2022/03/19 04:56:28;;;;;;;19.45;7.30;;;2.30;99.90;;;;;;5021588;28;20390;-86
2022/03/19 04:58:56;;;;;;;14.77;7.30;;;2.20;99.90;;;;;;5034579;28;20352;-87
2022/03/19 05:01:28;;;;;;;16.38;7.68;;;2.10;99.90;;;;;;5038031;28;20076;-87
2022/03/19 05:03:57;;;;;;;26.33;8.18;;;2.10;99.90;;;;;;5022279;28;20049;-86
2022/03/19 05:06:22;;;;;;;17.83;7.30;;;2.20;99.90;;;;;;5016394;28;20041;-87
2022/03/19 05:11:39;;;;;;;16.65;7.22;;;2.20;99.90;;;;;;5038128;28;20052;-87
2022/03/19 05:14:09;;;;;;;17.42;7.55;;;2.30;99.90;;;;;;5036139;28;20052;-87
2022/03/19 05:16:35;;;;;;;25.30;7.75;;;2.20;99.90;;;;;;5020758;28;20072;-86
2022/03/19 05:19:01;;;;;;;23.13;7.93;;;2.20;99.90;;;;;;5033637;28;20044;-87
2022/03/19 05:21:35;;;;;;;16.50;8.65;;;2.30;99.90;;;;;;5020926;28;20044;-87
2022/03/19 05:24:01;;;;;;;19.40;7.93;;;2.30;99.90;;;;;;5019405;28;20582;-87
2022/03/19 05:26:27;;;;;;;19.02;7.60;;;2.30;99.90;;;;;;5022361;28;20052;-87
2022/03/19 05:28:55;;;;;;;22.95;8.40;;;2.30;99.90;;;;;;5021492;28;20433;-86
2022/03/19 05:31:25;;;;;;;17.25;9.10;;;2.20;99.90;;;;;;5023112;28;20407;-87
2022/03/19 05:36:36;;;;;;;;;;;2.40;99.90;;;;;;5039460;28;20076;-86
2022/03/19 05:39:02;;;;;;;22.02;7.97;;;2.40;99.90;;;;;;5045017;28;20006;-87
2022/03/19 05:41:54;;;;;;;17.45;7.97;;;2.30;99.90;;;;;;5019148;28;20055;-86
2022/03/19 05:44:23;;;;;;;25.50;8.95;;;2.40;99.90;;;;;;5031979;28;20064;-87
2022/03/19 05:46:52;;;;;;;19.45;7.95;;;2.40;99.90;;;;;;5029762;28;20033;-88
2022/03/19 05:49:17;;;;;;;21.33;9.00;;;2.40;99.90;;;;;;5021325;28;20068;-87
2022/03/19 05:51:43;;;;;;;17.33;8.10;;;2.40;99.90;;;;;;5036014;28;20453;-87
2022/03/19 05:54:10;;;;;;;17.73;7.60;;;2.40;99.90;;;;;;5026265;28;20458;-87
2022/03/19 05:56:36;;;;;;;22.65;7.85;;;2.50;99.90;;;;;;5034383;28;20110;-88
2022/03/19 05:59:06;;;;;;;20.10;8.13;;;2.60;99.90;;;;;;5017985;28;20543;-87
2022/03/19 06:01:42;;;;;;;18.70;8.88;;;2.50;99.90;;;;;;5019192;28;20041;-87
2022/03/19 06:04:15;;;;;;;20.95;8.23;;;2.60;99.90;;;;;;5018283;28;20033;-88
2022/03/19 06:06:44;;;;;;;17.13;8.38;;;2.70;99.90;;;;;;5019704;28;20049;-87
2022/03/19 06:09:10;;;;;;;24.42;9.65;;;2.70;99.90;;;;;;5020268;28;20131;-88
2022/03/19 06:11:39;;;;;;;21.88;9.23;;;2.90;99.90;;;;;;5020328;28;20033;-87
2022/03/19 06:14:08;;;;;;;18.10;9.40;;;2.90;99.90;;;;;;5017030;28;20079;-88
2022/03/19 06:16:33;;;;;;;24.65;9.63;;;3.10;99.90;;;;;;5035548;28;20047;-88
2022/03/19 06:19:02;;;;;;;17.67;8.80;;;3.10;99.90;;;;;;5019823;28;20049;-88
2022/03/19 06:21:31;;;;;;;18.90;9.77;;;3.00;99.90;;;;;;5020806;28;20036;-88
2022/03/19 06:23:57;;;;;;;19.05;9.98;;;3.10;99.90;;;;;;5015380;28;20041;-88
2022/03/19 06:26:34;;;;;;;24.95;10.32;;;3.20;99.90;;;;;;5019684;28;20072;-88
2022/03/19 06:28:59;;;;;;;18.83;9.80;;;3.20;99.90;;;;;;5003893;28;20610;-87
2022/03/19 06:31:25;;;;;;;19.73;9.02;;;3.40;99.90;;;;;;5033533;28;20036;-87
2022/03/19 06:33:51;;;;;;;24.65;10.77;;;3.30;99.90;;;;;;5015946;28;20400;-88
2022/03/19 06:39:16;;;;;;;19.73;8.48;;;3.60;99.90;;;;;;5035149;28;20175;-87
2022/03/19 06:41:42;;;;;;;20.05;8.77;;;3.60;99.90;;;;;;5038630;28;20334;-88
2022/03/19 06:44:10;;;;;;;20.35;9.55;;;3.70;99.90;;;;;;5018090;28;20044;-87
2022/03/19 06:46:36;;;;;;;17.45;9.20;;;3.70;99.90;;;;;;5020616;28;20045;-88
2022/03/19 06:49:05;;;;;;;21.17;9.57;;;3.90;99.90;;;;;;5019104;28;20496;-88
2022/03/19 06:51:31;;;;;;;21.15;8.73;;;4.00;99.90;;;;;;5019600;28;20040;-87
2022/03/19 06:53:57;;;;;;;22.30;8.88;;;4.00;99.90;;;;;;5035392;28;20060;-87
2022/03/19 06:56:25;;;;;;;23.15;9.35;;;4.00;99.90;;;;;;5035235;28;20045;-89
2022/03/19 06:58:51;;;;;;;17.50;8.60;;;4.10;99.90;;;;;;5019138;28;20412;-87
2022/03/19 07:01:16;;;;;;;17.90;8.13;;;4.30;99.90;;;;;;5020171;28;20041;-88
2022/03/19 07:03:46;;;;;;;14.77;7.78;;;4.40;99.90;;;;;;5031280;28;20442;-88
2022/03/19 07:06:12;;;;;;;18.80;8.25;;;4.40;99.90;;;;;;5019530;28;20473;-88
2022/03/19 07:08:38;;;;;;;17.08;8.63;;;4.50;99.90;;;;;;5035631;28;20051;-88
2022/03/19 07:11:10;;;;;;;14.55;6.97;;;4.60;99.90;;;;;;5030803;28;20104;-87
2022/03/19 07:13:40;;;;;;;19.77;7.90;;;4.70;99.90;;;;;;5035342;28;20106;-86
2022/03/19 07:16:08;;;;;;;17.10;7.65;;;4.80;99.90;;;;;;5017388;28;20102;-87
2022/03/19 07:18:42;;;;;;;15.57;7.18;;;4.90;99.90;;;;;;5021171;28;20033;-88
2022/03/19 07:21:09;;;;;;;18.13;7.57;;;5.00;99.90;;;;;;5021949;28;20079;-88
2022/03/19 07:23:35;;;;;;;16.55;7.55;;;5.10;99.90;;;;;;5022528;28;20432;-86
2022/03/19 07:26:04;;;;;;;18.17;7.45;;;5.10;99.90;;;;;;5021673;28;20043;-87
2022/03/19 07:28:32;;;;;;;18.38;7.38;;;5.20;99.90;;;;;;5021627;28;20505;-86
2022/03/19 07:30:58;;;;;;;15.57;6.75;;;5.30;99.90;;;;;;5022300;28;20045;-86
2022/03/19 07:33:24;;;;;;;16.58;7.80;;;5.40;99.90;;;;;;5023509;28;20040;-86
2022/03/19 07:35:54;;;;;;;16.20;7.47;;;5.50;99.90;;;;;;5020992;28;20099;-87
2022/03/19 07:38:22;;;;;;;17.25;6.60;;;5.50;99.90;;;;;;5036518;28;20052;-87
2022/03/19 07:43:38;;;;;;;20.87;7.07;;;5.70;99.90;;;;;;5038358;28;20047;-87
2022/03/19 07:46:07;;;;;;;16.58;6.85;;;5.80;99.90;;;;;;5022775;28;20037;-86
2022/03/19 07:48:35;;;;;;;15.95;5.68;;;6.00;99.90;;;;;;5023555;28;20498;-87
2022/03/19 07:51:00;;;;;;;18.40;6.97;;;6.00;99.90;;;;;;5022524;28;20033;-87
2022/03/19 07:53:32;;;;;;;19.80;7.03;;;6.10;99.90;;;;;;5020972;28;20080;-88
2022/03/19 07:55:58;;;;;;;17.27;6.07;;;6.30;99.90;;;;;;5029864;28;20041;-88
2022/03/19 07:58:32;;;;;;;12.65;5.13;;;6.40;99.90;;;;;;5021381;28;20074;-88
2022/03/19 08:01:04;;;;;;;18.30;5.30;;;6.50;96.00;;;;;;5016817;28;20091;-88
2022/03/19 08:03:38;;;;;;;16.90;5.05;;;6.60;64.10;;;;;;5022205;28;20029;-88
2022/03/19 08:06:04;;;;;;;12.30;5.00;;;6.70;8.50;;;;;;5024337;28;20122;-87
2022/03/19 08:08:30;;;;;;;12.10;4.68;;;6.80;14.80;;;;;;5041149;28;20496;-86
2022/03/19 08:10:56;;;;;;;12.75;4.75;;;6.90;1.00;;;;;;5065676;28;20040;-88
2022/03/19 08:13:21;;;;;;;19.23;5.13;;;7.10;1.00;;;;;;5025799;28;20033;-87
2022/03/19 08:15:47;;;;;;;14.82;4.93;;;7.10;1.00;;;;;;5042131;28;20261;-88
2022/03/19 08:18:13;;;;;;;17.55;5.18;;;7.20;1.00;;;;;;5015556;28;20408;-87
2022/03/19 08:20:39;;;;;;;13.55;5.28;;;7.30;1.00;;;;;;5022177;28;20122;-88
2022/03/19 08:23:05;;;;;;;17.98;5.22;;;7.40;1.00;;;;;;5019804;28;20107;-87
2022/03/19 08:25:31;;;;;;;17.67;4.78;;;7.40;1.00;;;;;;5021936;28;20037;-87
2022/03/19 08:28:00;;;;;;;16.90;4.93;;;7.50;1.00;;;;;;5020523;28;20041;-88
2022/03/19 08:30:28;;;;;;;14.85;4.72;;;7.60;1.00;;;;;;5006567;28;20045;-88
2022/03/19 08:32:57;;;;;;;12.73;5.68;;;7.60;99.90;;;;;;5023861;28;20048;-88
2022/03/19 08:35:28;;;;;;;12.73;4.72;;;7.70;1.00;;;;;;5039492;28;20087;-87
2022/03/19 08:40:48;;;;;;;14.75;5.28;;;8.00;1.00;;;;;;4997978;28;20045;-87
2022/03/19 08:43:22;;;;;;;19.05;5.20;;;8.00;1.00;;;;;;5020880;28;20044;-87
2022/03/19 08:45:51;;;;;;;12.88;5.22;;;8.10;99.90;;;;;;5019162;28;20059;-87
2022/03/19 08:48:19;;;;;;;11.38;4.53;;;8.20;99.90;;;;;;5036485;28;20525;-88
2022/03/19 08:50:51;;;;;;;15.98;5.47;;;8.30;99.90;;;;;;5038637;28;20037;-85
2022/03/19 08:53:24;;;;;;;10.55;4.65;;;8.40;99.90;;;;;;5018950;28;20053;-87
2022/03/19 08:55:50;;;;;;;14.60;4.80;;;8.50;99.90;;;;;;5012915;28;20088;-88
2022/03/19 08:58:18;;;;;;;16.33;5.10;;;8.50;99.90;;;;;;5020993;28;20049;-89
2022/03/19 09:00:44;;;;;;;16.08;4.53;;;8.70;99.90;;;;;;5038633;28;20040;-88
2022/03/19 09:03:12;;;;;;;16.02;4.68;;;8.70;99.90;;;;;;5013046;28;20040;-88
2022/03/19 09:05:41;;;;;;;16.40;4.57;;;8.80;99.90;;;;;;5022274;28;20112;-88
2022/03/19 09:08:07;;;;;;;13.23;4.35;;;8.90;99.90;;;;;;5021744;28;20079;-89
2022/03/19 09:10:38;;;;;;;10.23;3.92;;;8.90;99.90;;;;;;5020992;28;20075;-89
2022/03/19 09:13:07;;;;;;;10.13;3.97;;;9.10;99.40;;;;;;5034670;28;20344;-88
2022/03/19 09:15:32;;;;;;;12.25;5.22;;;9.20;74.30;;;;;;5032634;28;20052;-87
2022/03/19 09:17:59;;;;;;;13.43;4.22;;;9.30;99.90;;;;;;5008319;28;20049;-88
2022/03/19 09:20:27;;;;;;;10.25;4.15;;;9.50;99.90;;;;;;5022043;28;20084;-88
2022/03/19 09:22:53;;;;;;;12.80;4.20;;;9.50;39.40;;;;;;5017934;28;20047;-88
2022/03/19 09:25:20;;;;;;;12.07;3.92;;;9.40;1.00;;;;;;5023052;28;20037;-88
2022/03/19 09:27:46;;;;;;;11.93;4.13;;;9.40;99.90;;;;;;5020162;28;20048;-88
2022/03/19 09:30:11;;;;;;;12.27;4.10;;;9.70;1.00;;;;;;5021085;28;20033;-89
2022/03/19 09:32:44;;;;;;;14.63;4.15;;;9.70;99.90;;;;;;5021071;28;20148;-89
2022/03/19 09:35:18;;;;;;;9.77;3.95;;;9.80;99.90;;;;;;5037993;28;20076;-89
2022/03/19 09:37:43;;;;;;;11.75;3.78;;;9.70;99.90;;;;;;5020852;28;20045;-87
2022/03/19 09:40:09;;;;;;;10.18;3.63;;;9.80;99.90;;;;;;5035715;28;20102;-88
2022/03/19 09:42:49;;;;;;;13.15;3.97;;;10.00;99.90;;;;;;5035065;28;20036;-89
2022/03/19 09:45:22;;;;;;;10.30;3.85;;;10.10;99.90;;;;;;5021998;28;20092;-88
2022/03/19 09:47:51;;;;;;;13.57;4.25;;;10.10;99.90;;;;;;5036514;28;20587;-88
2022/03/19 09:50:17;;;;;;;9.70;3.70;;;10.20;99.90;;;;;;5021503;28;20036;-88
2022/03/19 09:52:46;;;;;;;10.00;3.67;;;10.40;99.90;;;;;;5022373;28;20399;-89
2022/03/19 09:55:16;;;;;;;12.73;3.85;;;10.50;99.90;;;;;;5022893;28;20073;-88
2022/03/19 09:57:48;;;;;;;11.45;3.65;;;10.50;99.90;;;;;;5021771;28;20295;-87
2022/03/19 10:00:17;;;;;;;;;;;10.60;99.90;;;;;;5020440;28;20084;-89
2022/03/19 10:02:55;;;;;;;9.25;3.47;;;10.70;99.90;;;;;;5046451;28;19925;-88
2022/03/19 10:10:56;;;;;;;9.73;3.63;;;10.70;99.90;;;;;;5037925;28;20041;-89
2022/03/19 10:13:25;;;;;;;9.82;3.63;;;10.80;99.90;;;;;;5020258;28;20300;-88
2022/03/19 10:15:53;;;;;;;10.20;3.10;;;10.80;10.10;;;;;;5024008;28;20044;-90
2022/03/19 10:18:29;;;;;;;9.68;3.45;;;11.00;1.00;;;;;;5015146;28;20072;-89
2022/03/19 10:21:01;;;;;;;10.25;3.08;;;11.10;1.00;;;;;;5038968;28;20087;-89
2022/03/19 10:23:39;;;;;;;12.55;3.67;;;11.10;1.00;;;;;;5015970;28;20461;-89
2022/03/19 10:26:08;;;;;;;7.47;2.88;;;11.30;1.00;;;;;;5022054;28;20052;-89
2022/03/19 10:28:37;;;;;;;8.77;3.10;;;11.40;1.00;;;;;;5038729;28;20114;-88
2022/03/19 10:31:03;;;;;;;8.45;3.30;;;11.50;1.00;;;;;;5032602;28;20036;-89
2022/03/19 10:33:33;;;;;;;8.90;3.10;;;11.60;1.00;;;;;;5033476;28;20408;-87
2022/03/19 10:36:13;;;;;;;8.38;3.22;;;11.40;99.90;;;;;;5021669;28;20076;-89
2022/03/19 10:38:44;;;;;;;9.13;3.55;;;11.60;99.90;;;;;;5022399;28;20048;-88
2022/03/19 10:41:21;;;;;;;8.63;3.65;;;11.70;99.90;;;;;;5019601;28;20106;-87
2022/03/19 10:43:50;;;;;;;10.60;3.30;;;11.80;1.00;;;;;;5038336;28;20064;-89
2022/03/19 10:46:19;;;;;;;9.32;3.53;;;11.90;1.00;;;;;;5023461;28;20096;-89
2022/03/19 10:48:50;;;;;;;9.20;3.30;;;11.90;99.90;;;;;;5022459;28;20118;-89
2022/03/19 10:51:20;;;;;;;8.23;3.45;;;11.90;99.90;;;;;;5021191;28;20037;-89
2022/03/19 10:53:47;;;;;;;9.73;3.40;;;12.00;99.90;;;;;;5020064;28;20558;-89
2022/03/19 10:56:14;;;;;;;8.60;3.20;;;12.10;99.90;;;;;;5021579;28;20045;-88
2022/03/19 10:58:46;;;;;;;6.85;2.97;;;12.00;99.90;;;;;;5019892;28;20037;-91
2022/03/19 11:01:16;;;;;;;10.65;3.50;;;11.90;99.90;;;;;;5021701;28;20044;-90
2022/03/19 11:03:45;;;;;;;10.73;3.35;;;12.00;99.90;;;;;;5021607;28;20037;-90
2022/03/19 11:06:13;;;;;;;8.43;2.75;;;12.10;99.90;;;;;;5021100;28;20033;-91
2022/03/19 11:08:43;;;;;;;9.15;2.60;;;12.20;99.90;;;;;;5032193;28;20179;-90
2022/03/19 11:11:19;;;;;;;7.07;2.30;;;12.20;99.90;;;;;;5021548;28;20178;-89
2022/03/19 11:13:49;;;;;;;4.75;2.08;;;12.30;99.90;;;;;;5020305;28;20439;-89
2022/03/19 11:16:17;;;;;;;5.15;2.30;;;12.50;99.90;;;;;;5013208;28;20055;-89
2022/03/19 11:18:47;;;;;;;7.78;2.47;;;12.70;99.90;;;;;;5013944;28;20412;-90
2022/03/19 11:21:20;;;;;;;6.78;2.45;;;12.80;99.90;;;;;;5021632;28;20646;-88
2022/03/19 11:24:01;;;;;;;2.92;2.10;;;12.50;99.90;;;;;;5021064;28;20037;-90
2022/03/19 11:26:38;;;;;;;8.82;3.00;;;12.70;99.90;;;;;;5035818;28;20064;-89
2022/03/19 11:29:08;;;;;;;7.85;2.63;;;12.80;99.90;;;;;;5018469;28;20092;-90
2022/03/19 11:31:39;;;;;;;6.78;2.45;;;12.90;99.90;;;;;;5026578;28;20052;-90
2022/03/19 11:34:19;;;;;;;8.52;2.70;;;13.00;99.90;;;;;;5013381;28;20045;-89
2022/03/19 11:37:03;;;;;;;5.38;2.40;;;13.20;99.90;;;;;;5021219;28;20037;-90
2022/03/19 11:39:29;;;;;;;6.95;2.20;;;13.00;99.90;;;;;;5019394;28;20033;-90
2022/03/19 11:41:59;;;;;;;7.03;2.30;;;12.90;99.90;;;;;;5021710;28;20048;-91
2022/03/19 11:44:30;;;;;;;6.40;2.50;;;13.10;99.90;;;;;;5020135;28;20041;-90
2022/03/19 11:47:03;;;;;;;8.90;2.30;;;13.20;99.90;;;;;;5023208;28;20503;-89
2022/03/19 11:49:53;;;;;;;11.52;2.80;;;12.90;99.90;;;;;;5018010;28;20430;-89
2022/03/19 11:52:30;;;;;;;8.63;2.30;;;13.00;99.90;;;;;;5021387;28;21207;-91
2022/03/19 11:55:10;;;;;;;6.50;2.13;;;13.40;99.90;;;;;;5038040;28;20060;-89
2022/03/19 11:58:05;;;;;;;6.88;2.38;;;13.60;99.90;;;;;;5028810;28;20068;-89
2022/03/19 12:00:38;;;;;;;4.25;1.90;;;13.50;99.90;;;;;;5029622;28;20049;-89
2022/03/19 12:03:13;;;;;;;5.00;1.92;;;13.40;99.90;;;;;;5019537;28;20052;-90
2022/03/19 12:05:48;;;;;;;5.03;1.98;;;13.50;99.90;;;;;;5023919;28;20040;-89
2022/03/19 12:08:20;;;;;;;;;;;13.70;99.90;;;;;;5020935;28;20037;-90
2022/03/19 12:11:13;;;;;;;4.15;1.90;;;13.50;99.90;;;;;;5062062;28;19920;-90
2022/03/19 12:13:41;;;;;;;3.85;1.73;;;13.60;99.90;;;;;;5023167;28;20078;-90
2022/03/19 12:16:16;;;;;;;6.03;1.88;;;13.80;99.90;;;;;;5026059;28;20425;-91
2022/03/19 12:18:46;;;;;;;3.70;1.67;;;13.80;99.90;;;;;;5023901;28;20037;-90
2022/03/19 12:21:11;;;;;;;3.72;1.90;;;13.90;99.90;;;;;;5025192;28;20452;-91
2022/03/19 12:24:14;;;;;;;8.27;2.47;;;14.00;99.90;;;;;;5025138;28;20079;-89
2022/03/19 12:26:51;;;;;;;4.70;2.00;;;13.60;99.90;;;;;;5024419;28;20109;-90
2022/03/19 12:29:20;;;;;;;4.88;1.90;;;13.80;99.90;;;;;;5022984;28;20080;-90
2022/03/19 12:31:48;;;;;;;4.65;1.90;;;14.20;99.90;;;;;;5023000;28;20051;-90
2022/03/19 12:34:20;;;;;;;2.97;1.77;;;14.20;99.90;;;;;;5022868;28;20512;-90
2022/03/19 12:36:46;;;;;;;5.20;1.95;;;14.30;99.90;;;;;;5041834;28;20128;-91
2022/03/19 12:39:12;;;;;;;3.00;1.70;;;14.40;99.90;;;;;;5020841;28;20076;-89
2022/03/19 12:41:39;;;;;;;2.67;1.25;;;14.50;99.90;;;;;;5024819;28;20032;-90
2022/03/19 12:44:26;;;;;;;3.33;1.70;;;14.30;99.90;;;;;;5037114;28;20041;-90
2022/03/19 12:47:03;;;;;;;3.75;1.58;;;14.70;99.90;;;;;;5037020;28;20054;-90
2022/03/19 12:49:31;;;;;;;4.13;1.70;;;14.80;99.90;;;;;;5022844;28;20103;-90
2022/03/19 12:51:57;;;;;;;4.57;2.10;;;14.80;99.90;;;;;;5022508;28;20445;-90
2022/03/19 12:54:28;;;;;;;4.80;2.00;;;14.80;99.90;;;;;;5022802;28;20052;-91
2022/03/19 12:56:58;;;;;;;4.97;2.13;;;15.00;99.90;;;;;;5019486;28;20187;-90
2022/03/19 12:59:26;;;;;;;3.30;1.75;;;14.60;99.90;;;;;;5037247;28;20047;-89
2022/03/19 13:01:56;;;;;;;3.80;1.90;;;14.70;99.90;;;;;;5018861;28;20049;-90
2022/03/19 13:04:30;;;;;;;3.97;1.88;;;14.30;99.90;;;;;;5033311;28;20041;-90
2022/03/19 13:06:59;;;;;;;6.00;1.70;;;14.30;99.90;;;;;;5021749;28;20041;-91
2022/03/19 13:09:32;;;;;;;4.20;1.70;;;14.70;99.90;;;;;;5021073;28;20456;-90
2022/03/19 13:11:59;;;;;;;4.65;2.00;;;14.60;99.90;;;;;;5017013;28;20053;-90
2022/03/19 13:14:30;;;;;;;4.72;2.00;;;15.00;99.90;;;;;;5036127;28;20045;-89
2022/03/19 13:16:58;;;;;;;5.82;2.00;;;14.90;99.90;;;;;;5030805;28;20206;-89
2022/03/19 13:19:33;;;;;;;4.13;1.52;;;15.10;99.90;;;;;;5023611;28;20539;-90
2022/03/19 13:22:03;;;;;;;5.20;1.73;;;15.20;99.90;;;;;;5039641;28;20307;-91